Time;durP1;ratioP1;P1;durP2;ratioP2;P2;SDS_P1;SDS_P2;PMS_P1;PMS_P2;Temp;Humidity;BMP_temperature;BMP_pressure;BME280_temperature;BME280_humidity;BME280_pressure;Samples;Min_cycle;Max_cycle;Signal;HPM_P1;HPM_P2
2023/01/08 00:01:37;;;;;;;;;;;10.30;99.90;;;;;;5033993;28;20439;-53
2023/01/08 00:04:02;;;;;;;;;;;10.30;99.90;;;;;;5033786;28;19952;-54
2023/01/08 00:06:28;;;;;;;;;;;10.30;99.90;;;;;;5033881;28;19909;-54
2023/01/08 00:08:54;;;;;;;;;;;10.40;99.90;;;;;;5033601;28;20266;-52
2023/01/08 00:11:19;;;;;;;;;;;10.40;99.90;;;;;;5033631;28;19909;-55
2023/01/08 00:13:45;;;;;;;;;;;10.40;99.90;;;;;;5033504;28;19915;-53
2023/01/08 00:16:11;;;;;;;;;;;10.40;99.90;;;;;;5033537;28;19909;-50
2023/01/08 00:18:37;;;;;;;;;;;10.40;99.90;;;;;;5033138;28;19909;-52
2023/01/08 00:21:03;;;;;;;;;;;10.50;99.90;;;;;;5033459;28;19908;-53
2023/01/08 00:23:29;;;;;;;;;;;10.50;99.90;;;;;;5032798;28;20316;-54
2023/01/08 00:25:55;;;;;;;;;;;10.50;99.90;;;;;;5033334;28;19941;-51
2023/01/08 00:28:20;;;;;;;;;;;10.50;99.90;;;;;;5033083;28;19974;-53
2023/01/08 00:30:47;;;;;;;;;;;10.50;99.90;;;;;;5033006;28;19909;-55
2023/01/08 00:33:12;;;;;;;;;;;10.40;99.90;;;;;;5033018;28;20306;-54
2023/01/08 00:35:38;;;;;;;;;;;10.50;99.90;;;;;;5033132;28;20011;-52
2023/01/08 00:38:04;;;;;;;;;;;10.50;99.90;;;;;;5032833;28;19909;-52
2023/01/08 00:40:29;;;;;;;;;;;10.50;99.90;;;;;;5032947;28;19916;-50
2023/01/08 00:42:55;;;;;;;;;;;10.50;99.90;;;;;;5032882;28;19909;-55
2023/01/08 00:45:21;;;;;;;;;;;10.40;99.90;;;;;;5032901;28;19955;-52
2023/01/08 00:47:46;;;;;;;;;;;10.40;99.90;;;;;;5032420;28;19909;-54
2023/01/08 00:50:12;;;;;;;;;;;10.40;99.90;;;;;;5033006;28;19916;-53
2023/01/08 00:52:38;;;;;;;;;;;10.40;99.90;;;;;;5032699;28;19912;-56
2023/01/08 00:55:04;;;;;;;;;;;10.40;99.90;;;;;;5032679;28;20008;-54
2023/01/08 00:57:33;;;;;;;;;;;10.40;99.90;;;;;;5032559;28;20251;-54
2023/01/08 00:59:59;;;;;;;;;;;10.50;99.90;;;;;;5032503;28;19909;-54
2023/01/08 01:02:24;;;;;;;;;;;10.50;99.90;;;;;;5032278;28;19909;-52
2023/01/08 01:04:50;;;;;;;;;;;10.40;99.90;;;;;;5032581;28;19952;-55
2023/01/08 01:07:16;;;;;;;;;;;10.40;99.90;;;;;;5032340;28;20271;-54
2023/01/08 01:09:41;;;;;;;;;;;10.40;99.90;;;;;;5032311;28;20392;-53
2023/01/08 01:12:07;;;;;;;;;;;10.40;99.90;;;;;;5032278;28;19913;-54
2023/01/08 01:14:32;;;;;;;;;;;10.40;99.90;;;;;;5032261;28;19924;-55
2023/01/08 01:16:58;;;;;;;;;;;10.40;99.90;;;;;;5032030;28;19987;-54
2023/01/08 01:19:23;;;;;;;;;;;10.30;99.90;;;;;;5032293;28;19966;-55
2023/01/08 01:21:49;;;;;;;;;;;10.30;99.90;;;;;;5031991;28;19909;-55
2023/01/08 01:24:15;;;;;;;;;;;10.30;99.90;;;;;;5032251;28;19909;-53
2023/01/08 01:26:41;;;;;;;;;;;10.30;99.90;;;;;;5031900;28;20003;-54
2023/01/08 01:29:07;;;;;;;;;;;10.30;99.90;;;;;;5030617;28;20396;-55
2023/01/08 01:31:33;;;;;;;;;;;10.40;99.90;;;;;;5031918;28;19913;-55
2023/01/08 01:33:59;;;;;;;;;;;10.40;99.90;;;;;;5032049;28;20397;-54
2023/01/08 01:36:25;;;;;;;;;;;10.40;99.90;;;;;;5030480;28;20381;-54
2023/01/08 01:38:51;;;;;;;;;;;10.40;99.90;;;;;;5031629;28;19994;-54
2023/01/08 01:41:18;;;;;;;;;;;10.40;99.90;;;;;;5031833;28;19913;-54
2023/01/08 01:43:43;;;;;;;;;;;10.40;99.90;;;;;;5031577;28;20039;-53
2023/01/08 01:46:25;;;;;;;;;;;10.40;99.90;;;;;;5031633;28;20021;-55
2023/01/08 01:48:54;;;;;;;;;;;10.40;99.90;;;;;;5031653;28;20297;-56
2023/01/08 01:51:20;;;;;;;;;;;10.40;99.90;;;;;;5031631;28;19916;-54
2023/01/08 01:53:46;;;;;;;;;;;10.50;99.90;;;;;;5031376;28;19921;-55
2023/01/08 01:56:11;;;;;;;;;;;10.40;99.90;;;;;;5031598;28;20001;-53
2023/01/08 01:58:37;;;;;;;;;;;10.40;99.90;;;;;;5031047;28;19916;-54
2023/01/08 02:01:04;;;;;;;;;;;10.50;99.90;;;;;;5031328;28;19912;-55
2023/01/08 02:03:32;;;;;;;;;;;10.40;99.90;;;;;;5031380;28;19912;-52
2023/01/08 02:06:07;;;;;;;;;;;10.40;99.90;;;;;;5031417;28;19909;-54
2023/01/08 02:08:41;;;;;;;;;;;10.40;99.90;;;;;;5031331;28;19917;-54
2023/01/08 02:11:10;;;;;;;;;;;10.40;99.90;;;;;;5031622;28;19913;-55
2023/01/08 02:13:38;;;;;;;;;;;10.40;99.90;;;;;;5031022;28;19909;-53
2023/01/08 02:16:11;;;;;;;;;;;10.40;99.90;;;;;;5031360;28;19909;-54
2023/01/08 02:18:40;;;;;;;;;;;10.40;99.90;;;;;;5030954;28;19909;-54
2023/01/08 02:21:10;;;;;;;;;;;10.40;99.90;;;;;;5031268;28;19956;-54
2023/01/08 02:23:45;;;;;;;;;;;10.40;99.90;;;;;;5031060;28;19931;-53
2023/01/08 02:26:16;;;;;;;;;;;10.30;99.90;;;;;;5031143;28;19915;-53
2023/01/08 02:28:47;;;;;;;;;;;10.30;99.90;;;;;;5030768;28;19909;-52
2023/01/08 02:31:14;;;;;;;;;;;10.30;99.90;;;;;;5030925;28;19912;-51
2023/01/08 02:33:39;;;;;;;;;;;10.30;99.90;;;;;;5030896;28;19913;-52
2023/01/08 02:36:11;;;;;;;;;;;10.30;99.90;;;;;;5030917;28;20368;-52
2023/01/08 02:38:43;;;;;;;;;;;10.30;99.90;;;;;;5030612;28;19913;-52
2023/01/08 02:41:11;;;;;;;;;;;10.20;99.90;;;;;;5030970;28;19952;-52
2023/01/08 02:43:48;;;;;;;;;;;10.30;99.90;;;;;;5030968;28;20313;-54
2023/01/08 02:46:17;;;;;;;;;;;10.30;99.90;;;;;;5031283;28;20016;-52
2023/01/08 02:49:00;;;;;;;;;;;10.30;99.90;;;;;;5034741;28;19909;-54
2023/01/08 02:51:31;;;;;;;;;;;10.30;99.90;;;;;;5034937;28;19909;-55
2023/01/08 02:53:58;;;;;;;;;;;10.30;99.90;;;;;;5034862;28;19959;-55
2023/01/08 02:56:27;;;;;;;;;;;10.30;99.90;;;;;;5035011;28;19909;-53
2023/01/08 02:58:52;;;;;;;;;;;10.30;99.90;;;;;;5034573;28;20369;-55
2023/01/08 03:01:21;;;;;;;;;;;10.30;99.90;;;;;;5034754;28;19916;-52
2023/01/08 03:03:49;;;;;;;;;;;10.30;99.90;;;;;;5058141;22;19928;-48
2023/01/08 03:06:16;;;;;;;;;;;10.30;99.90;;;;;;5054588;28;20365;-50
2023/01/08 03:08:44;;;;;;;;;;;10.30;99.90;;;;;;5054331;28;20003;-48
2023/01/08 03:11:11;;;;;;;;;;;10.40;99.90;;;;;;5054372;28;20046;-48
2023/01/08 03:13:43;;;;;;;;;;;10.40;99.90;;;;;;5054306;28;19909;-52
2023/01/08 03:16:11;;;;;;;;;;;10.40;99.90;;;;;;5054602;28;20296;-52
2023/01/08 03:18:40;;;;;;;;;;;10.40;99.90;;;;;;5054077;28;19909;-50
2023/01/08 03:21:06;;;;;;;;;;;10.40;99.90;;;;;;5054399;28;20384;-50
2023/01/08 03:23:32;;;;;;;;;;;10.40;99.90;;;;;;5054271;28;19913;-50
2023/01/08 03:25:59;;;;;;;;;;;10.40;99.90;;;;;;5054466;28;19909;-50
2023/01/08 03:28:29;;;;;;;;;;;10.40;99.90;;;;;;5053918;28;19908;-50
2023/01/08 03:30:56;;;;;;;;;;;10.40;99.90;;;;;;5054121;28;19909;-47
2023/01/08 03:33:23;;;;;;;;;;;10.30;99.90;;;;;;5054034;28;19909;-49
2023/01/08 03:35:50;;;;;;;;;;;10.40;99.90;;;;;;5054132;28;19912;-50
2023/01/08 03:38:25;;;;;;;;;;;10.40;99.90;;;;;;5053660;28;19909;-47
2023/01/08 03:40:53;;;;;;;;;;;10.40;99.90;;;;;;5053745;28;19908;-48
2023/01/08 03:43:18;;;;;;;;;;;10.40;99.90;;;;;;5053849;28;19909;-54
2023/01/08 03:45:54;;;;;;;;;;;10.40;99.90;;;;;;5053985;28;20258;-49
2023/01/08 03:48:20;;;;;;;;;;;10.50;99.90;;;;;;5053651;28;19909;-50
2023/01/08 03:50:46;;;;;;;;;;;10.50;99.90;;;;;;5053487;28;19915;-53
2023/01/08 03:53:11;;;;;;;;;;;10.40;99.90;;;;;;5053681;28;19917;-53
2023/01/08 03:55:37;;;;;;;;;;;10.50;99.90;;;;;;5053650;28;19958;-51
2023/01/08 03:58:03;;;;;;;;;;;10.40;99.90;;;;;;5052169;28;20353;-50
2023/01/08 04:00:28;;;;;;;;;;;10.50;99.90;;;;;;5053442;28;19909;-52
2023/01/08 04:02:54;;;;;;;;;;;10.50;99.90;;;;;;5053508;28;20281;-49
2023/01/08 04:05:20;;;;;;;;;;;10.50;99.90;;;;;;5053551;28;20401;-51
2023/01/08 04:07:45;;;;;;;;;;;10.40;99.90;;;;;;5053214;28;19909;-52
2023/01/08 04:10:11;;;;;;;;;;;10.40;99.90;;;;;;5053176;28;19912;-48
2023/01/08 04:12:36;;;;;;;;;;;10.40;99.90;;;;;;5053349;28;19915;-53
2023/01/08 04:15:02;;;;;;;;;;;10.40;99.90;;;;;;5053316;28;19912;-50
2023/01/08 04:17:28;;;;;;;;;;;10.40;99.90;;;;;;5053073;28;19908;-51
2023/01/08 04:19:53;;;;;;;;;;;10.50;99.90;;;;;;5053006;28;19915;-50
2023/01/08 04:22:19;;;;;;;;;;;10.50;99.90;;;;;;5053173;28;19908;-48
2023/01/08 04:24:44;;;;;;;;;;;10.50;99.90;;;;;;5053217;28;19908;-52
2023/01/08 04:27:10;;;;;;;;;;;10.40;99.90;;;;;;5053132;28;19951;-49
2023/01/08 04:29:36;;;;;;;;;;;10.40;99.90;;;;;;5052876;28;19915;-51
2023/01/08 04:32:01;;;;;;;;;;;10.40;99.90;;;;;;5053135;28;20277;-49
2023/01/08 04:34:27;;;;;;;;;;;10.30;99.90;;;;;;5052851;28;19913;-48
2023/01/08 04:36:53;;;;;;;;;;;10.30;99.90;;;;;;5053129;28;19909;-51
2023/01/08 04:39:18;;;;;;;;;;;10.30;99.90;;;;;;5052579;28;20392;-47
2023/01/08 04:41:44;;;;;;;;;;;10.30;99.90;;;;;;5053001;28;19995;-52
2023/01/08 04:44:09;;;;;;;;;;;10.30;99.90;;;;;;5052806;28;19909;-49
2023/01/08 04:46:35;;;;;;;;;;;10.30;99.90;;;;;;5052635;28;20365;-49
2023/01/08 04:49:01;;;;;;;;;;;10.30;99.90;;;;;;5052490;28;19920;-50
2023/01/08 04:51:26;;;;;;;;;;;10.30;99.90;;;;;;5052760;28;19909;-52
2023/01/08 04:53:52;;;;;;;;;;;10.20;99.90;;;;;;5052737;28;20015;-49
2023/01/08 04:56:17;;;;;;;;;;;10.30;99.90;;;;;;5052446;28;19912;-51
2023/01/08 04:58:43;;;;;;;;;;;10.30;99.90;;;;;;5052237;28;19975;-48
2023/01/08 05:01:12;;;;;;;;;;;10.20;99.90;;;;;;5052615;28;19971;-47
2023/01/08 05:03:38;;;;;;;;;;;10.20;99.90;;;;;;5052220;28;19912;-50
2023/01/08 05:06:04;;;;;;;;;;;10.20;99.90;;;;;;5052442;28;19962;-49
2023/01/08 05:08:29;;;;;;;;;;;10.20;99.90;;;;;;5051982;28;19915;-51
2023/01/08 05:10:57;;;;;;;;;;;10.20;99.90;;;;;;5051869;28;19909;-49
2023/01/08 05:13:23;;;;;;;;;;;10.20;99.90;;;;;;5052182;28;20407;-49
2023/01/08 05:15:48;;;;;;;;;;;10.10;99.90;;;;;;5052116;28;19912;-51
2023/01/08 05:18:14;;;;;;;;;;;10.10;99.90;;;;;;5052365;28;20271;-49
2023/01/08 05:20:39;;;;;;;;;;;10.10;99.90;;;;;;5051781;28;19908;-48
2023/01/08 05:23:05;;;;;;;;;;;10.10;99.90;;;;;;5052078;28;19909;-47
2023/01/08 05:25:30;;;;;;;;;;;10.20;99.90;;;;;;5052044;28;19935;-51
2023/01/08 05:27:56;;;;;;;;;;;10.20;99.90;;;;;;5051919;28;19912;-47
2023/01/08 05:30:22;;;;;;;;;;;10.20;99.90;;;;;;5050312;28;20042;-48
2023/01/08 05:32:47;;;;;;;;;;;10.10;99.90;;;;;;5050424;28;19916;-47
2023/01/08 05:35:13;;;;;;;;;;;10.20;99.90;;;;;;5051737;28;19927;-48
2023/01/08 05:37:39;;;;;;;;;;;10.10;99.90;;;;;;5051683;28;19913;-50
2023/01/08 05:40:05;;;;;;;;;;;10.00;99.90;;;;;;5051573;28;20306;-48
2023/01/08 05:42:32;;;;;;;;;;;10.10;99.90;;;;;;5052033;28;19931;-47
2023/01/08 05:44:57;;;;;;;;;;;10.10;99.90;;;;;;5051670;28;19909;-52
2023/01/08 05:47:23;;;;;;;;;;;10.00;99.90;;;;;;5050229;28;19923;-49
2023/01/08 05:49:49;;;;;;;;;;;10.00;99.90;;;;;;5051395;28;19909;-51
2023/01/08 05:52:14;;;;;;;;;;;10.00;99.90;;;;;;5051363;28;19954;-48
2023/01/08 05:54:40;;;;;;;;;;;10.00;99.90;;;;;;5051360;28;20019;-49
2023/01/08 05:57:05;;;;;;;;;;;9.90;99.90;;;;;;5051478;28;20015;-48
2023/01/08 05:59:31;;;;;;;;;;;9.90;99.90;;;;;;5051255;28;19913;-49
2023/01/08 06:01:56;;;;;;;;;;;10.00;99.90;;;;;;5051394;28;19905;-48
2023/01/08 06:04:22;;;;;;;;;;;10.00;99.90;;;;;;5051183;28;20361;-48
2023/01/08 06:06:48;;;;;;;;;;;10.00;99.90;;;;;;5051078;28;20004;-49
2023/01/08 06:09:13;;;;;;;;;;;10.00;99.90;;;;;;5051131;28;19912;-49
2023/01/08 06:11:39;;;;;;;;;;;10.10;99.90;;;;;;5051335;28;20396;-49
2023/01/08 06:14:04;;;;;;;;;;;10.00;99.90;;;;;;5051066;28;20384;-51
2023/01/08 06:16:30;;;;;;;;;;;10.10;99.90;;;;;;5050932;28;19944;-50
2023/01/08 06:18:56;;;;;;;;;;;10.10;99.90;;;;;;5051232;28;19916;-49
2023/01/08 06:21:21;;;;;;;;;;;10.10;99.90;;;;;;5050546;28;20317;-47
2023/01/08 06:23:47;;;;;;;;;;;10.10;99.90;;;;;;5051102;28;19954;-49
2023/01/08 06:26:12;;;;;;;;;;;10.10;99.90;;;;;;5051142;28;20411;-52
2023/01/08 06:28:38;;;;;;;;;;;10.20;99.90;;;;;;5050751;28;19947;-49
2023/01/08 06:31:03;;;;;;;;;;;10.10;99.90;;;;;;5050787;28;19909;-49
2023/01/08 06:33:29;;;;;;;;;;;10.10;99.90;;;;;;5050909;28;19916;-47
2023/01/08 06:35:58;;;;;;;;;;;10.20;99.90;;;;;;5050832;28;20285;-47
2023/01/08 06:38:23;;;;;;;;;;;10.10;99.90;;;;;;5050863;28;20339;-48
2023/01/08 06:40:49;;;;;;;;;;;10.00;99.90;;;;;;5051107;28;19913;-51
2023/01/08 06:43:15;;;;;;;;;;;9.70;99.90;;;;;;5050785;28;19995;-46
2023/01/08 06:45:40;;;;;;;;;;;9.50;99.90;;;;;;5050811;28;19954;-50
2023/01/08 06:48:06;;;;;;;;;;;9.20;99.90;;;;;;5050716;28;20281;-52
2023/01/08 06:50:32;;;;;;;;;;;9.10;99.90;;;;;;5050569;28;20007;-48
2023/01/08 06:52:58;;;;;;;;;;;9.00;99.90;;;;;;5050780;28;19916;-48
2023/01/08 06:55:24;;;;;;;;;;;8.90;99.90;;;;;;5050664;28;19917;-47
2023/01/08 06:57:56;;;;;;;;;;;8.90;99.90;;;;;;5050680;28;19909;-47
2023/01/08 07:00:22;;;;;;;;;;;8.80;99.90;;;;;;5050534;28;19962;-48
2023/01/08 07:02:49;;;;;;;;;;;8.70;99.90;;;;;;5050551;28;19908;-50
2023/01/08 07:05:14;;;;;;;;;;;8.60;99.90;;;;;;5050645;28;19915;-47
2023/01/08 07:07:40;;;;;;;;;;;8.60;99.90;;;;;;5050504;28;19995;-48
2023/01/08 07:10:06;;;;;;;;;;;8.50;99.90;;;;;;5050464;28;19912;-48
2023/01/08 07:12:32;;;;;;;;;;;8.50;99.90;;;;;;5050562;28;20032;-48
2023/01/08 07:14:58;;;;;;;;;;;8.50;99.90;;;;;;5050484;28;19966;-51
2023/01/08 07:17:23;;;;;;;;;;;8.40;99.90;;;;;;5050527;28;19979;-49
2023/01/08 07:19:49;;;;;;;;;;;8.40;99.90;;;;;;5050318;28;19908;-50
2023/01/08 07:22:14;;;;;;;;;;;8.50;99.90;;;;;;5050515;28;19908;-48
2023/01/08 07:24:40;;;;;;;;;;;8.40;99.90;;;;;;5050502;28;19916;-47
2023/01/08 07:27:06;;;;;;;;;;;8.40;99.90;;;;;;5050284;28;19954;-47
2023/01/08 07:29:31;;;;;;;;;;;8.30;99.90;;;;;;5050152;28;19908;-50
2023/01/08 07:31:57;;;;;;;;;;;8.30;99.90;;;;;;5050494;28;20277;-47
2023/01/08 07:34:22;;;;;;;;;;;8.20;99.90;;;;;;5053847;28;19928;-48
2023/01/08 07:36:48;;;;;;;;;;;8.20;99.90;;;;;;5054052;28;20405;-47
2023/01/08 07:39:13;;;;;;;;;;;8.20;99.90;;;;;;5053950;28;19986;-51
2023/01/08 07:41:39;;;;;;;;;;;8.30;99.90;;;;;;5054435;28;19909;-48
2023/01/08 07:44:05;;;;;;;;;;;8.20;99.90;;;;;;5053900;28;19954;-48
2023/01/08 07:46:30;;;;;;;;;;;8.30;99.90;;;;;;5053715;28;19913;-48
2023/01/08 07:48:56;;;;;;;;;;;8.30;99.90;;;;;;5053637;28;20260;-52
2023/01/08 07:51:22;;;;;;;;;;;8.30;99.90;;;;;;5053892;28;20065;-48
2023/01/08 07:53:47;;;;;;;;;;;8.20;99.90;;;;;;5053777;28;19917;-55
2023/01/08 07:56:13;;;;;;;;;;;8.20;99.90;;;;;;5053871;28;20352;-50
2023/01/08 07:58:38;;;;;;;;;;;8.20;99.90;;;;;;5053202;28;19915;-52
2023/01/08 08:01:07;;;;;;;;;;;8.20;99.90;;;;;;5053604;28;19962;-51
2023/01/08 08:03:32;;;;;;;;;;;8.20;99.90;;;;;;5053465;28;19912;-48
2023/01/08 08:05:59;;;;;;;;;;;8.20;99.90;;;;;;5053680;28;19909;-53
2023/01/08 08:08:24;;;;;;;;;;;8.20;99.90;;;;;;5053198;28;19923;-49
2023/01/08 08:10:50;;;;;;;;;;;8.10;99.90;;;;;;5053301;28;19905;-53
2023/01/08 08:13:15;;;;;;;;;;;8.10;99.90;;;;;;5053370;28;19934;-51
2023/01/08 08:15:41;;;;;;;;;;;8.10;99.90;;;;;;5053538;28;19966;-50
2023/01/08 08:18:07;;;;;;;;;;;8.10;99.90;;;;;;5053185;28;19908;-50
2023/01/08 08:20:33;;;;;;;;;;;8.00;99.90;;;;;;5053087;28;19995;-48
2023/01/08 08:23:08;;;;;;;;;;;8.00;99.90;;;;;;5053214;28;20452;-48
2023/01/08 08:25:34;;;;;;;;;;;7.90;99.90;;;;;;5053230;28;19915;-49
2023/01/08 08:28:00;;;;;;;;;;;7.90;99.90;;;;;;5052990;28;19943;-48
2023/01/08 08:30:28;;;;;;;;;;;7.80;99.90;;;;;;5052708;28;19908;-48
2023/01/08 08:32:53;;;;;;;;;;;7.80;99.90;;;;;;5053176;28;20281;-48
2023/01/08 08:35:20;;;;;;;;;;;7.80;99.90;;;;;;5053145;28;19913;-48
2023/01/08 08:37:45;;;;;;;;;;;7.70;99.90;;;;;;5052892;28;19993;-48
2023/01/08 08:40:11;;;;;;;;;;;7.70;99.90;;;;;;5052690;28;20003;-49
2023/01/08 08:42:36;;;;;;;;;;;7.60;99.90;;;;;;5053058;28;19939;-48
2023/01/08 08:45:03;;;;;;;;;;;7.50;99.90;;;;;;5052266;28;20344;-47
2023/01/08 08:47:28;;;;;;;;;;;7.50;99.90;;;;;;5052605;28;20273;-50
2023/01/08 08:49:54;;;;;;;;;;;7.60;99.90;;;;;;5052949;28;19908;-48
2023/01/08 08:52:19;;;;;;;;;;;7.60;99.90;;;;;;5052638;28;20003;-48
2023/01/08 08:54:45;;;;;;;;;;;7.70;99.90;;;;;;5052590;28;19913;-48
2023/01/08 08:57:10;;;;;;;;;;;7.80;99.90;;;;;;5052411;28;19912;-48
2023/01/08 08:59:36;;;;;;;;;;;7.90;99.90;;;;;;5052363;28;19954;-49
2023/01/08 09:02:02;;;;;;;;;;;7.90;99.90;;;;;;5052720;28;20266;-52
2023/01/08 09:04:31;;;;;;;;;;;7.90;99.90;;;;;;5064468;22;20245;-57
2023/01/08 09:06:57;;;;;;;;;;;7.90;99.90;;;;;;5052231;28;19998;-55
2023/01/08 09:09:22;;;;;;;;;;;8.10;99.90;;;;;;5052136;28;19952;-55
2023/01/08 09:11:48;;;;;;;;;;;8.20;99.90;;;;;;5052238;28;19932;-55
2023/01/08 09:14:14;;;;;;;;;;;8.20;99.90;;;;;;5052312;28;20155;-55
2023/01/08 09:16:39;;;;;;;;;;;8.30;99.90;;;;;;5051947;28;19995;-55
2023/01/08 09:19:06;;;;;;;;;;;8.40;99.90;;;;;;5051908;28;19915;-53
2023/01/08 09:21:31;;;;;;;;;;;8.50;99.90;;;;;;5052037;28;19966;-54
2023/01/08 09:23:57;;;;;;;;;;;8.50;99.90;;;;;;5052005;28;20547;-55
2023/01/08 09:26:23;;;;;;;;;;;8.60;99.90;;;;;;5051658;28;19913;-54
2023/01/08 09:28:48;;;;;;;;;;;8.70;99.90;;;;;;5051830;28;19908;-55
2023/01/08 09:31:14;;;;;;;;;;;8.70;99.90;;;;;;5051846;28;19908;-54
2023/01/08 09:33:40;;;;;;;;;;;8.80;99.90;;;;;;5051845;28;19913;-53
2023/01/08 09:36:14;;;;;;;;;;;8.90;99.90;;;;;;5051789;28;19979;-56
2023/01/08 09:38:41;;;;;;;;;;;9.10;99.90;;;;;;5051427;28;20400;-55
2023/01/08 09:41:09;;;;;;;;;;;9.20;99.90;;;;;;5051692;28;19959;-55
2023/01/08 09:43:36;;;;;;;;;;;9.30;99.90;;;;;;5051581;28;20016;-56
2023/01/08 09:46:03;;;;;;;;;;;9.60;99.90;;;;;;5051683;28;19933;-56
2023/01/08 09:48:31;;;;;;;;;;;9.80;99.90;;;;;;5051325;28;19975;-56
2023/01/08 09:50:57;;;;;;;;;;;9.90;99.90;;;;;;5051496;28;20221;-55
2023/01/08 09:53:23;;;;;;;;;;;10.00;99.90;;;;;;5051431;28;19913;-57
2023/01/08 09:55:59;;;;;;;;;;;10.10;99.90;;;;;;5049437;28;20407;-54
2023/01/08 09:58:37;;;;;;;;;;;9.90;99.90;;;;;;5051465;28;19908;-56
2023/01/08 10:01:03;;;;;;;;;;;9.90;99.90;;;;;;5051262;28;19913;-55
2023/01/08 10:03:30;;;;;;;;;;;9.90;99.90;;;;;;5051160;28;19909;-55
2023/01/08 10:05:56;;;;;;;;;;;9.90;99.90;;;;;;5049908;28;20292;-55
2023/01/08 10:08:21;;;;;;;;;;;9.80;99.90;;;;;;5051083;28;19916;-55
2023/01/08 10:10:47;;;;;;;;;;;10.10;99.90;;;;;;5051031;28;19916;-55
2023/01/08 10:13:13;;;;;;;;;;;10.40;99.90;;;;;;5051227;28;20292;-54
2023/01/08 10:15:39;;;;;;;;;;;10.50;99.90;;;;;;5051005;28;20361;-55
2023/01/08 10:18:05;;;;;;;;;;;10.50;99.90;;;;;;5050913;28;19908;-57
2023/01/08 10:20:31;;;;;;;;;;;10.90;99.90;;;;;;5050761;28;20003;-56
2023/01/08 10:23:07;;;;;;;;;;;11.40;99.90;;;;;;5051040;28;19915;-55
2023/01/08 10:25:45;;;;;;;;;;;11.50;99.90;;;;;;5051238;28;19908;-56
2023/01/08 10:28:17;;;;;;;;;;;11.40;99.90;;;;;;5050901;28;19913;-56
2023/01/08 10:30:42;;;;;;;;;;;11.30;99.90;;;;;;5049412;28;19916;-56
2023/01/08 10:33:23;;;;;;;;;;;11.30;99.90;;;;;;5050731;28;19908;-57
2023/01/08 10:35:57;;;;;;;;;;;11.40;99.90;;;;;;5051195;28;19967;-56
2023/01/08 10:38:31;;;;;;;;;;;12.40;99.90;;;;;;5050705;28;19936;-55
2023/01/08 10:40:57;;;;;;;;;;;13.10;99.90;;;;;;5050512;28;19908;-55
2023/01/08 10:43:28;;;;;;;;;;;12.90;99.90;;;;;;5050626;28;20445;-57
2023/01/08 10:45:56;;;;;;;;;;;12.60;99.90;;;;;;5051195;28;20027;-54
2023/01/08 10:48:24;;;;;;;;;;;12.30;99.90;;;;;;5050602;28;20041;-56
2023/01/08 10:50:50;;;;;;;;;;;12.00;99.90;;;;;;5050592;28;19909;-55
2023/01/08 10:53:27;;;;;;;;;;;12.00;99.90;;;;;;5050686;28;20277;-56
2023/01/08 10:55:57;;;;;;;;;;;11.80;99.90;;;;;;5050870;28;19935;-55
2023/01/08 10:58:23;;;;;;;;;;;12.10;99.90;;;;;;5050787;28;19920;-56
2023/01/08 11:00:49;;;;;;;;;;;12.80;99.90;;;;;;5050299;28;19909;-57
2023/01/08 11:03:26;;;;;;;;;;;13.00;99.90;;;;;;5050503;28;19913;-55
2023/01/08 11:05:52;;;;;;;;;;;12.90;99.90;;;;;;5050625;28;19944;-56
2023/01/08 11:08:18;;;;;;;;;;;12.80;99.90;;;;;;5052424;28;20431;-56
2023/01/08 11:10:54;;;;;;;;;;;12.50;99.90;;;;;;5054305;28;20392;-56
2023/01/08 11:13:20;;;;;;;;;;;12.30;99.90;;;;;;5054582;28;19909;-54
2023/01/08 11:15:46;;;;;;;;;;;12.30;99.90;;;;;;5054305;28;19955;-55
2023/01/08 11:18:14;;;;;;;;;;;12.10;99.90;;;;;;5054168;28;19908;-55
2023/01/08 11:20:40;;;;;;;;;;;12.00;99.90;;;;;;5054098;28;20003;-55
2023/01/08 11:23:23;;;;;;;;;;;11.80;99.90;;;;;;5054244;28;20261;-56
2023/01/08 11:26:07;;;;;;;;;;;11.60;99.90;;;;;;5054340;28;19999;-56
2023/01/08 11:28:38;;;;;;;;;;;11.40;99.90;;;;;;5053683;28;19956;-57
2023/01/08 11:31:16;;;;;;;;;;;11.30;99.90;;;;;;5054070;28;19917;-57
2023/01/08 11:33:43;;;;;;;;;;;11.30;99.90;;;;;;5054017;28;19909;-55
2023/01/08 11:36:17;;;;;;;;;;;11.20;99.90;;;;;;5054210;28;20300;-57
2023/01/08 11:38:42;;;;;;;;;;;11.10;99.90;;;;;;5053903;28;19916;-55
2023/01/08 11:41:18;;;;;;;;;;;11.00;99.90;;;;;;5053975;28;19908;-56
2023/01/08 11:43:45;;;;;;;;;;;11.00;99.90;;;;;;5053737;28;19955;-55
2023/01/08 11:46:23;;;;;;;;;;;10.90;99.90;;;;;;5053934;28;19958;-56
2023/01/08 11:48:55;;;;;;;;;;;10.90;99.90;;;;;;5053908;28;20044;-57
2023/01/08 11:51:23;;;;;;;;;;;10.90;99.90;;;;;;5054219;28;20369;-55
2023/01/08 11:54:04;;;;;;;;;;;10.80;99.90;;;;;;5053569;28;19909;-57
2023/01/08 11:56:36;;;;;;;;;;;10.70;99.90;;;;;;5053630;28;19908;-56
2023/01/08 11:59:14;;;;;;;;;;;10.40;99.90;;;;;;5053372;28;19909;-57
2023/01/08 12:01:48;;;;;;;;;;;10.20;99.90;;;;;;5053544;28;20008;-56
2023/01/08 12:04:17;;;;;;;;;;;10.00;99.90;;;;;;5053357;28;19967;-56
2023/01/08 12:06:51;;;;;;;;;;;9.90;99.90;;;;;;5053283;28;19909;-56
2023/01/08 12:09:23;;;;;;;;;;;9.80;99.90;;;;;;5053276;28;19909;-55
2023/01/08 12:11:57;;;;;;;;;;;9.60;99.90;;;;;;5053584;28;19908;-54
2023/01/08 12:14:26;;;;;;;;;;;9.30;99.90;;;;;;5053174;28;20480;-58
2023/01/08 12:16:55;;;;;;;;;;;8.80;99.90;;;;;;5052957;28;19909;-58
2023/01/08 12:19:39;;;;;;;;;;;8.40;99.90;;;;;;5052253;28;19935;-58
2023/01/08 12:22:11;;;;;;;;;;;8.10;99.90;;;;;;5053279;28;19915;-58
2023/01/08 12:24:37;;;;;;;;;;;7.90;99.90;;;;;;5053176;28;19916;-57
2023/01/08 12:27:02;;;;;;;;;;;7.90;99.90;;;;;;5053201;28;19913;-56
2023/01/08 12:29:44;;;;;;;;;;;7.90;99.90;;;;;;5052733;28;19909;-56
2023/01/08 12:32:18;;;;;;;;;;;8.00;99.90;;;;;;5053250;28;19999;-56
2023/01/08 12:34:49;;;;;;;;;;;7.90;99.90;;;;;;5052969;28;19912;-57
2023/01/08 12:37:35;;;;;;;;;;;8.00;99.90;;;;;;5052658;28;19909;-57
2023/01/08 12:40:06;;;;;;;;;;;8.30;99.90;;;;;;5038361;28;19916;-57
2023/01/08 12:42:33;;;;;;;;;;;9.20;99.90;;;;;;5052826;28;19912;-57
2023/01/08 12:45:00;;;;;;;;;;;10.50;99.90;;;;;;5052587;28;20346;-57
2023/01/08 12:47:28;;;;;;;;;;;11.70;99.90;;;;;;5052523;28;20376;-57
2023/01/08 12:49:58;;;;;;;;;;;13.00;99.90;;;;;;5052466;28;19908;-57
2023/01/08 12:52:35;;;;;;;;;;;13.70;99.90;;;;;;5052614;28;20293;-57
2023/01/08 12:55:09;;;;;;;;;;;14.10;99.90;;;;;;5052466;28;20022;-58
2023/01/08 12:57:49;;;;;;;;;;;15.00;99.90;;;;;;5052286;28;19909;-57
2023/01/08 13:00:24;;;;;;;;;;;15.90;99.90;;;;;;5050879;28;20285;-57
2023/01/08 13:02:53;;;;;;;;;;;16.10;99.90;;;;;;5052522;28;19962;-57
2023/01/08 13:05:18;;;;;;;;;;;15.90;99.90;;;;;;5052390;28;19912;-55
2023/01/08 13:07:45;;;;;;;;;;;16.40;99.90;;;;;;5052034;28;19915;-55
2023/01/08 13:10:23;;;;;;;;;;;16.70;99.90;;;;;;5051947;28;19912;-56
2023/01/08 13:12:50;;;;;;;;;;;16.20;99.90;;;;;;5052210;28;19916;-58
2023/01/08 13:15:20;;;;;;;;;;;15.70;99.90;;;;;;5051903;28;19982;-56
2023/01/08 13:17:47;;;;;;;;;;;15.60;99.90;;;;;;5051985;28;19913;-56
2023/01/08 13:20:18;;;;;;;;;;;14.70;99.90;;;;;;5051902;28;19913;-55
2023/01/08 13:22:50;;;;;;;;;;;14.50;99.90;;;;;;5052166;28;19915;-57
2023/01/08 13:25:15;;;;;;;;;;;14.90;99.90;;;;;;5052098;28;19909;-56
2023/01/08 13:27:42;;;;;;;;;;;15.80;99.90;;;;;;5051628;28;20319;-56
2023/01/08 13:30:26;;;;;;;;;;;16.50;99.90;;;;;;5051626;28;19908;-57
2023/01/08 13:32:52;;;;;;;;;;;17.10;99.90;;;;;;5051949;28;20327;-57
2023/01/08 13:35:17;;;;;;;;;;;17.30;99.00;;;;;;5051967;28;19913;-56
2023/01/08 13:37:44;;;;;;;;;;;17.20;98.20;;;;;;5051571;28;19915;-56
2023/01/08 13:40:29;;;;;;;;;;;17.50;97.80;;;;;;5051247;28;19959;-56
2023/01/08 13:42:57;;;;;;;;;;;17.50;97.60;;;;;;5051509;28;19995;-56
2023/01/08 13:45:24;;;;;;;;;;;18.00;97.60;;;;;;5050256;28;19912;-57
2023/01/08 13:47:50;;;;;;;;;;;18.30;96.70;;;;;;5051797;28;19917;-56
2023/01/08 13:50:19;;;;;;;;;;;18.90;95.80;;;;;;5051269;28;20046;-57
2023/01/08 13:52:46;;;;;;;;;;;19.20;94.20;;;;;;5051441;28;20314;-56
2023/01/08 13:55:17;;;;;;;;;;;19.10;92.90;;;;;;5051382;28;19917;-56
2023/01/08 13:57:45;;;;;;;;;;;17.80;95.20;;;;;;5051577;28;20525;-55
2023/01/08 14:00:20;;;;;;;;;;;16.90;96.00;;;;;;5051066;28;19916;-55
2023/01/08 14:02:53;;;;;;;;;;;15.70;98.20;;;;;;5051381;28;20281;-56
2023/01/08 14:05:27;;;;;;;;;;;14.70;99.90;;;;;;5051412;28;19943;-56
2023/01/08 14:07:53;;;;;;;;;;;13.70;99.90;;;;;;5051120;28;19913;-54
2023/01/08 14:10:19;;;;;;;;;;;13.00;99.90;;;;;;5050886;28;19916;-56
2023/01/08 14:12:45;;;;;;;;;;;12.80;99.90;;;;;;5051164;28;19904;-54
2023/01/08 14:15:29;;;;;;;;;;;12.40;99.90;;;;;;5051053;28;19917;-55
2023/01/08 14:17:55;;;;;;;;;;;12.10;99.90;;;;;;5050919;28;19908;-53
2023/01/08 14:20:31;;;;;;;;;;;11.50;99.90;;;;;;5050774;28;20335;-55
2023/01/08 14:22:58;;;;;;;;;;;11.40;99.90;;;;;;5051086;28;20281;-55
2023/01/08 14:25:24;;;;;;;;;;;11.10;99.90;;;;;;5051017;28;19912;-55